FW4213 Weather Reports


Display with metric or nautical units.
time (UTC)temp
F
wind
direction
speed
MPH
gust
MPH
rain 1hr
in
rain 24hr
in
rain mn
in
humidity
%
barometer
mb
20201204020025 33 105 0.0 0.0 0.00 0.00 0.00 93 1033.3
20201204014555 33 90 0.0 0.0 0.00 0.00 0.00 92 1033.0
20201204013033 34 90 0.0 0.0 0.00 0.00 0.00 92 1033.0
20201204011523 34 90 0.0 0.0 0.00 0.00 0.00 92 1033.0
20201204010040 34 90 0.0 0.0 0.00 0.00 0.00 92 1032.7
20201204004516 34 30 0.0 0.0 0.00 0.00 0.00 92 1032.7
20201204001523 35 337 0.0 0.0 0.00 0.00 0.00 91 1032.3
20201204000034 35 337 0.0 0.0 0.00 0.00 0.00 91 1032.3
20201203234516 35 337 0.0 0.0 0.00 0.00 0.00 91 1032.3
20201203233051 27 141 1.0 0.0 0.00 0.00 0.00 95 1031.3
20201203231549 27 141 1.0 0.0 0.00 0.00 0.00 95 1031.3
20201203230053 27 141 1.0 0.0 0.00 0.00 0.00 95 1031.3
20201203224544 27 141 1.0 0.0 0.00 0.00 0.00 95 1031.3
20201203223053 27 141 1.0 0.0 0.00 0.00 0.00 95 1031.3
20201203221546 27 141 1.0 0.0 0.00 0.00 0.00 95 1031.3
20201203220045 27 141 1.0 0.0 0.00 0.00 0.00 95 1031.3
20201203214545 27 134 2.0 0.0 0.00 0.00 0.00 94 1031.3
20201203213047 27 134 2.0 0.0 0.00 0.00 0.00 94 1031.3
20201203211551 27 134 2.0 0.0 0.00 0.00 0.00 94 1031.3
20201203210046 27 134 2.0 0.0 0.00 0.00 0.00 94 1031.3
20201203193051 27 134 2.0 0.0 0.00 0.00 0.00 94 1031.3
20201203191551 27 134 2.0 0.0 0.00 0.00 0.00 94 1031.3
20201203190105 27 134 2.0 0.0 0.00 0.00 0.00 94 1031.3
20201203184545 27 134 2.0 0.0 0.00 0.00 0.00 94 1031.3
20201203183047 27 134 2.0 0.0 0.00 0.00 0.00 94 1031.3
20201203181548 27 134 2.0 0.0 0.00 0.00 0.00 94 1031.3
20201203180050 27 134 2.0 0.0 0.00 0.00 0.00 94 1031.3
20201203174543 29 360 0.0 0.0 0.00 0.00 0.00 94 1031.3
20201203173047 29 360 0.0 0.0 0.00 0.00 0.00 94 1031.3
20201203171546 29 360 0.0 0.0 0.00 0.00 0.00 94 1031.3
20201203170110 29 360 0.0 0.0 0.00 0.00 0.00 94 1031.3
20201203164547 30 108 3.0 0.0 0.00 0.00 0.00 95 1031.6
20201203163048 30 108 3.0 0.0 0.00 0.00 0.00 95 1031.6
20201203161546 30 108 3.0 0.0 0.00 0.00 0.00 95 1031.6
20201203160057 30 108 3.0 0.0 0.00 0.00 0.00 95 1031.6
20201203154545 29 128 2.0 0.0 0.00 0.00 0.00 95 1031.6
20201203153047 29 128 2.0 0.0 0.00 0.00 0.00 95 1031.6
20201203151546 29 128 2.0 0.0 0.00 0.00 0.00 95 1031.6
20201203150053 29 128 2.0 0.0 0.00 0.00 0.00 95 1031.6
20201203144547 29 112 1.0 0.0 0.00 0.00 0.00 95 1031.6
20201203143052 29 112 1.0 0.0 0.00 0.00 0.00 95 1031.6
20201203141549 29 112 1.0 0.0 0.00 0.00 0.00 95 1031.6
20201203140049 29 112 1.0 0.0 0.00 0.00 0.00 95 1031.6
20201203134546 30 105 1.0 0.0 0.00 0.00 0.00 95 1032.0
20201203133052 30 105 1.0 0.0 0.00 0.00 0.00 95 1032.0
20201203131554 30 105 1.0 0.0 0.00 0.00 0.00 95 1032.0
20201203130049 30 105 1.0 0.0 0.00 0.00 0.00 95 1032.0
20201203124546 30 105 1.0 0.0 0.00 0.00 0.00 95 1032.0
20201203123049 30 105 1.0 0.0 0.00 0.00 0.00 95 1032.0
20201203121550 30 105 1.0 0.0 0.00 0.00 0.00 95 1032.0
20201203120051 30 105 1.0 0.0 0.00 0.00 0.00 95 1032.0
20201203114558 30 105 1.0 0.0 0.00 0.00 0.00 95 1032.0
20201203113056 30 105 1.0 0.0 0.00 0.00 0.00 95 1032.0
20201203111549 30 105 1.0 0.0 0.00 0.00 0.00 95 1032.0
20201203110051 30 105 1.0 0.0 0.00 0.00 0.00 95 1032.0
20201203104720 30 61 1.0 0.0 0.00 0.00 0.00 95 1031.6
20201203074550 30 114 3.0 0.0 0.00 0.00 0.00 94 1035.7
20201203073045 30 114 3.0 0.0 0.00 0.00 0.00 94 1035.7
20201203071615 30 114 3.0 0.0 0.00 0.00 0.00 94 1035.7
20201203070052 30 114 3.0 0.0 0.00 0.00 0.00 94 1035.7
20201203064733 30 114 3.0 0.0 0.00 0.00 0.00 94 1035.7
20201203060052 30 114 3.0 0.0 0.00 0.00 0.00 94 1035.7
20201203054546 30 114 3.0 0.0 0.00 0.00 0.00 94 1035.7
20201203053048 30 114 3.0 0.0 0.00 0.00 0.00 94 1035.7
20201203051551 30 114 3.0 0.0 0.00 0.00 0.00 94 1035.7
20201203050049 30 114 3.0 0.0 0.00 0.00 0.00 94 1035.7
20201203044553 30 114 3.0 0.0 0.00 0.00 0.00 94 1035.7
20201203043105 30 114 3.0 0.0 0.00 0.00 0.00 94 1035.7
20201203041545 31 136 3.0 0.0 0.00 0.00 0.00 94 1035.7
20201203040105 31 136 3.0 0.0 0.00 0.00 0.00 94 1035.7
20201203034549 31 136 3.0 0.0 0.00 0.00 0.00 94 1035.7
20201203033046 31 136 3.0 0.0 0.00 0.00 0.00 94 1035.7
20201203031547 31 135 1.0 0.0 0.00 0.00 0.00 94 1035.7
20201203030048 31 135 1.0 0.0 0.00 0.00 0.00 94 1035.7
20201203024551 31 135 1.0 0.0 0.00 0.00 0.00 94 1035.7
20201203023047 31 135 1.0 0.0 0.00 0.00 0.00 94 1035.7
20201203021552 31 118 0.0 0.0 0.00 0.00 0.00 94 1035.7